Weskan, KS (67762)

8:55 AM MDT on August 01, 2014 (GMT -0600)
KWS (KCOCHEYE2) Elev 4252 ft | 38.82 °N, 102.33 °W | Change Station

Current weather conditions updated 34 seconds ago

Clear
Clear
74.0 °F
Feels Like 77 °F
N
6.0
Wind Variable Wind from WNW
Gusts 8.0 mph

Today is forecast to be Warmer than yesterday.

Today
High -- | Low -- °F
--% Chance of Precip.
Yesterday
High -- | Low -- °F
Precip. -- in
5:48 AM 7:58 PM
Waxing Crescent, 27% visible
Pressure 30.09 in
Visibility 10.0 miles
Clouds Clear
Heat Index 77 °F
Dew Point 52 °F
Humidity 46%
Rainfall 0.00 in
Snow Depth Not available.
UV 2 out of 12
Pollen 7.60 out of 12
Air Quality Not available.
Flu Activity Not available.
METAR KITR 011353Z AUTO 27006KT 10SM CLR 19/13 A3023 RMK AO2 SLP190 T01890133

More Conditions Fewer Conditions

Pressure 30.09 in
Visibility 10.0 miles
Clouds Clear
Heat Index 77 °F
Dew Point 52 °F
Humidity 46%
Rainfall 0.00 in
Snow Depth Not available.
UV 2 out of 12
Pollen 7.60 out of 12
Air Quality Not available.
Flu Activity Not available.
METAR KITR 011353Z AUTO 27006KT 10SM CLR 19/13 A3023 RMK AO2 SLP190 T01890133

More Conditions Fewer Conditions

10-Day Weather Forecast

Almanac

Astronomy

Aug. 01, 2014 Rise Set
Actual Time 5:48 AM MDT 7:58 PM MDT
Civil Twilight 5:19 AM MDT 8:28 PM MDT
Nautical Twilight 4:42 AM MDT 9:04 PM MDT
Astronomical Twilight 4:03 AM MDT 9:44 PM MDT
Moon 11:11 AM MDT 10:48 PM MDT
Length of Visible Light 15h 09m
Length of Day
14h 09m
Tomorrow will be 1m 55s shorter.
Waxing Crescent, 27% of the Moon is Illuminated
Today
Waxing Crescent
Aug 3
First Quarter
Aug 10
Full
Aug 17
Last Quarter
Aug 25
New

Today's Extremes

State Highs State Lows

Community

WunderPhotos

Upload Photos

1,739,599 photos uploaded!

Nearby

Snow Depth

Station Depth Elevation
No new snow has been reported.

Earthquake Activity

City Distance Mag. Time & Date
No recent earthquake activity has been reported nearby.
Minimum magnitude displayed is 2.5.

Coastal Water Temperatures

Place Temperature
No Stations Reporting

Nearby Weather Stations

Station Location Temp. Heat Index Dew Point Humidity Wind Precip. Elev Updated Type
MesoWest ARAPHO , Arapahoe, CO 56 °F - - - North  at  - 0.00 in / hr 3991 ft 5:55 AM MDT MADIS
KWS, Cheyenne Wells, CO 74.0 °F 77 °F 52 °F 46% WNW  at  6.0 mph 0.00 in / hr 4252 ft 8:55 AM MDT Normal
DW8525, Cheyenne Wells, CO 73.8 °F 77 °F 53 °F 49% West  at  5.4 mph 0.00 in / hr 4295 ft 8:55 AM MDT Rapid Fire

Show More Stations Show Fewer Stations